sensor_id;sensor_type;location;lat;lon;timestamp;P1;durP1;ratioP1;P2;durP2;ratioP2
55483;SDS011;41345;51.704;5.146;2022-12-07T00:02:59;15.23;;;9.38;;
55483;SDS011;41345;51.704;5.146;2022-12-07T00:07:59;20.00;;;9.25;;
55483;SDS011;41345;51.704;5.146;2022-12-07T00:12:59;15.67;;;9.07;;
55483;SDS011;41345;51.704;5.146;2022-12-07T00:18:00;19.08;;;8.60;;
55483;SDS011;41345;51.704;5.146;2022-12-07T00:23:00;16.98;;;8.95;;
55483;SDS011;41345;51.704;5.146;2022-12-07T00:28:00;25.47;;;9.57;;
55483;SDS011;41345;51.704;5.146;2022-12-07T00:33:01;13.70;;;7.93;;
55483;SDS011;41345;51.704;5.146;2022-12-07T00:38:01;21.48;;;8.52;;
55483;SDS011;41345;51.704;5.146;2022-12-07T00:43:01;16.10;;;7.70;;
55483;SDS011;41345;51.704;5.146;2022-12-07T00:48:02;18.08;;;7.68;;
55483;SDS011;41345;51.704;5.146;2022-12-07T00:53:02;14.88;;;6.82;;
55483;SDS011;41345;51.704;5.146;2022-12-07T00:58:03;16.67;;;7.43;;
55483;SDS011;41345;51.704;5.146;2022-12-07T01:03:03;16.02;;;8.02;;
55483;SDS011;41345;51.704;5.146;2022-12-07T01:08:04;18.30;;;7.32;;
55483;SDS011;41345;51.704;5.146;2022-12-07T01:13:05;15.55;;;7.90;;
55483;SDS011;41345;51.704;5.146;2022-12-07T01:18:05;16.98;;;8.02;;
55483;SDS011;41345;51.704;5.146;2022-12-07T01:23:05;19.55;;;8.23;;
55483;SDS011;41345;51.704;5.146;2022-12-07T01:28:06;17.02;;;8.20;;
55483;SDS011;41345;51.704;5.146;2022-12-07T01:33:06;17.67;;;7.88;;
55483;SDS011;41345;51.704;5.146;2022-12-07T01:38:06;16.70;;;8.38;;
55483;SDS011;41345;51.704;5.146;2022-12-07T01:43:14;18.30;;;7.95;;
55483;SDS011;41345;51.704;5.146;2022-12-07T01:48:16;17.50;;;7.28;;
55483;SDS011;41345;51.704;5.146;2022-12-07T01:53:17;16.73;;;7.40;;
55483;SDS011;41345;51.704;5.146;2022-12-07T01:58:18;17.08;;;8.20;;
55483;SDS011;41345;51.704;5.146;2022-12-07T02:03:21;22.08;;;7.30;;
55483;SDS011;41345;51.704;5.146;2022-12-07T02:08:22;17.07;;;7.23;;
55483;SDS011;41345;51.704;5.146;2022-12-07T02:13:28;12.75;;;6.93;;
55483;SDS011;41345;51.704;5.146;2022-12-07T02:18:36;17.52;;;7.30;;
55483;SDS011;41345;51.704;5.146;2022-12-07T02:23:40;12.35;;;6.45;;
55483;SDS011;41345;51.704;5.146;2022-12-07T02:33:54;12.73;;;5.25;;
55483;SDS011;41345;51.704;5.146;2022-12-07T02:39:08;8.77;;;4.13;;
55483;SDS011;41345;51.704;5.146;2022-12-07T02:44:16;11.05;;;3.97;;
55483;SDS011;41345;51.704;5.146;2022-12-07T02:49:18;9.70;;;3.70;;
55483;SDS011;41345;51.704;5.146;2022-12-07T02:54:19;10.15;;;3.20;;
55483;SDS011;41345;51.704;5.146;2022-12-07T03:09:46;8.05;;;2.60;;
55483;SDS011;41345;51.704;5.146;2022-12-07T03:15:00;9.93;;;3.42;;
55483;SDS011;41345;51.704;5.146;2022-12-07T03:20:03;10.05;;;2.47;;
55483;SDS011;41345;51.704;5.146;2022-12-07T03:25:04;6.35;;;2.10;;
55483;SDS011;41345;51.704;5.146;2022-12-07T03:30:06;11.95;;;2.70;;
55483;SDS011;41345;51.704;5.146;2022-12-07T03:35:19;7.38;;;2.10;;
55483;SDS011;41345;51.704;5.146;2022-12-07T03:40:33;7.10;;;2.10;;
55483;SDS011;41345;51.704;5.146;2022-12-07T03:45:42;7.35;;;1.90;;
55483;SDS011;41345;51.704;5.146;2022-12-07T03:55:46;7.80;;;2.25;;
55483;SDS011;41345;51.704;5.146;2022-12-07T04:00:48;8.88;;;2.33;;
55483;SDS011;41345;51.704;5.146;2022-12-07T04:05:48;7.00;;;2.20;;
55483;SDS011;41345;51.704;5.146;2022-12-07T04:10:49;7.53;;;2.10;;
55483;SDS011;41345;51.704;5.146;2022-12-07T04:15:49;7.72;;;2.58;;
55483;SDS011;41345;51.704;5.146;2022-12-07T04:20:49;10.70;;;3.08;;
55483;SDS011;41345;51.704;5.146;2022-12-07T04:25:50;8.73;;;2.58;;
55483;SDS011;41345;51.704;5.146;2022-12-07T04:30:50;8.47;;;2.57;;
55483;SDS011;41345;51.704;5.146;2022-12-07T04:35:50;12.20;;;3.70;;
55483;SDS011;41345;51.704;5.146;2022-12-07T04:40:51;8.95;;;2.85;;
55483;SDS011;41345;51.704;5.146;2022-12-07T04:45:51;11.83;;;3.30;;
55483;SDS011;41345;51.704;5.146;2022-12-07T04:50:51;14.90;;;3.33;;
55483;SDS011;41345;51.704;5.146;2022-12-07T04:55:52;11.68;;;4.05;;
55483;SDS011;41345;51.704;5.146;2022-12-07T05:00:55;13.13;;;4.83;;
55483;SDS011;41345;51.704;5.146;2022-12-07T05:05:55;13.38;;;4.95;;
55483;SDS011;41345;51.704;5.146;2022-12-07T05:10:55;11.18;;;4.63;;
55483;SDS011;41345;51.704;5.146;2022-12-07T05:15:56;14.15;;;5.07;;
55483;SDS011;41345;51.704;5.146;2022-12-07T05:20:56;15.07;;;5.28;;
55483;SDS011;41345;51.704;5.146;2022-12-07T05:25:56;13.25;;;6.95;;
55483;SDS011;41345;51.704;5.146;2022-12-07T05:30:57;13.50;;;5.80;;
55483;SDS011;41345;51.704;5.146;2022-12-07T05:35:57;13.23;;;6.30;;
55483;SDS011;41345;51.704;5.146;2022-12-07T05:41:01;13.18;;;6.03;;
55483;SDS011;41345;51.704;5.146;2022-12-07T05:46:02;12.35;;;5.75;;
55483;SDS011;41345;51.704;5.146;2022-12-07T05:51:02;12.52;;;5.38;;
55483;SDS011;41345;51.704;5.146;2022-12-07T05:56:03;10.38;;;5.40;;
55483;SDS011;41345;51.704;5.146;2022-12-07T06:01:03;15.02;;;6.55;;
55483;SDS011;41345;51.704;5.146;2022-12-07T06:06:03;13.60;;;6.83;;
55483;SDS011;41345;51.704;5.146;2022-12-07T06:11:04;15.67;;;7.00;;
55483;SDS011;41345;51.704;5.146;2022-12-07T06:16:23;15.02;;;7.07;;
55483;SDS011;41345;51.704;5.146;2022-12-07T06:21:23;15.53;;;7.37;;
55483;SDS011;41345;51.704;5.146;2022-12-07T06:26:25;13.98;;;7.25;;
55483;SDS011;41345;51.704;5.146;2022-12-07T06:31:26;15.48;;;8.02;;
55483;SDS011;41345;51.704;5.146;2022-12-07T06:36:26;20.95;;;9.25;;
55483;SDS011;41345;51.704;5.146;2022-12-07T06:41:27;16.50;;;8.13;;
55483;SDS011;41345;51.704;5.146;2022-12-07T06:46:27;14.60;;;7.87;;
55483;SDS011;41345;51.704;5.146;2022-12-07T06:51:27;18.65;;;8.43;;
55483;SDS011;41345;51.704;5.146;2022-12-07T06:56:27;15.80;;;7.70;;
55483;SDS011;41345;51.704;5.146;2022-12-07T07:01:28;13.75;;;8.00;;
55483;SDS011;41345;51.704;5.146;2022-12-07T07:06:29;16.45;;;8.55;;
55483;SDS011;41345;51.704;5.146;2022-12-07T07:11:29;13.82;;;7.88;;
55483;SDS011;41345;51.704;5.146;2022-12-07T07:16:29;17.98;;;8.32;;
55483;SDS011;41345;51.704;5.146;2022-12-07T07:21:30;19.88;;;7.95;;
55483;SDS011;41345;51.704;5.146;2022-12-07T07:26:31;17.58;;;8.13;;
55483;SDS011;41345;51.704;5.146;2022-12-07T07:31:31;19.13;;;7.95;;
55483;SDS011;41345;51.704;5.146;2022-12-07T07:36:32;16.40;;;7.30;;
55483;SDS011;41345;51.704;5.146;2022-12-07T07:41:32;16.50;;;6.13;;
55483;SDS011;41345;51.704;5.146;2022-12-07T07:46:32;12.90;;;5.35;;
55483;SDS011;41345;51.704;5.146;2022-12-07T07:51:33;13.32;;;4.60;;
55483;SDS011;41345;51.704;5.146;2022-12-07T07:56:33;16.42;;;4.43;;
55483;SDS011;41345;51.704;5.146;2022-12-07T08:01:33;15.50;;;4.50;;
55483;SDS011;41345;51.704;5.146;2022-12-07T08:06:34;14.63;;;5.05;;
55483;SDS011;41345;51.704;5.146;2022-12-07T08:11:34;13.68;;;5.10;;
55483;SDS011;41345;51.704;5.146;2022-12-07T08:16:37;11.43;;;5.68;;
55483;SDS011;41345;51.704;5.146;2022-12-07T08:21:37;18.63;;;5.60;;
55483;SDS011;41345;51.704;5.146;2022-12-07T08:26:38;14.70;;;5.88;;
55483;SDS011;41345;51.704;5.146;2022-12-07T08:31:41;14.02;;;6.68;;
55483;SDS011;41345;51.704;5.146;2022-12-07T08:36:45;12.27;;;5.70;;
55483;SDS011;41345;51.704;5.146;2022-12-07T08:41:46;13.57;;;5.45;;
55483;SDS011;41345;51.704;5.146;2022-12-07T08:46:47;14.57;;;6.15;;
55483;SDS011;41345;51.704;5.146;2022-12-07T08:51:49;16.77;;;6.95;;
55483;SDS011;41345;51.704;5.146;2022-12-07T08:56:50;22.98;;;8.43;;
55483;SDS011;41345;51.704;5.146;2022-12-07T09:01:52;19.52;;;7.80;;
55483;SDS011;41345;51.704;5.146;2022-12-07T09:06:53;21.45;;;9.07;;
55483;SDS011;41345;51.704;5.146;2022-12-07T09:11:53;24.38;;;9.30;;
55483;SDS011;41345;51.704;5.146;2022-12-07T09:16:54;14.68;;;8.40;;
55483;SDS011;41345;51.704;5.146;2022-12-07T09:21:54;16.40;;;8.27;;
55483;SDS011;41345;51.704;5.146;2022-12-07T09:26:54;18.13;;;8.90;;
55483;SDS011;41345;51.704;5.146;2022-12-07T09:31:55;16.10;;;8.07;;
55483;SDS011;41345;51.704;5.146;2022-12-07T09:36:55;14.63;;;7.03;;
55483;SDS011;41345;51.704;5.146;2022-12-07T09:41:56;16.83;;;7.22;;
55483;SDS011;41345;51.704;5.146;2022-12-07T09:46:57;13.85;;;7.30;;
55483;SDS011;41345;51.704;5.146;2022-12-07T09:57:07;14.75;;;8.40;;
55483;SDS011;41345;51.704;5.146;2022-12-07T10:02:23;13.98;;;7.45;;
55483;SDS011;41345;51.704;5.146;2022-12-07T10:07:24;12.93;;;5.88;;
55483;SDS011;41345;51.704;5.146;2022-12-07T10:12:25;13.23;;;6.10;;
55483;SDS011;41345;51.704;5.146;2022-12-07T10:17:33;11.35;;;5.97;;
55483;SDS011;41345;51.704;5.146;2022-12-07T10:22:34;14.20;;;6.10;;
55483;SDS011;41345;51.704;5.146;2022-12-07T10:27:34;12.77;;;5.78;;
55483;SDS011;41345;51.704;5.146;2022-12-07T10:32:35;19.35;;;4.55;;
55483;SDS011;41345;51.704;5.146;2022-12-07T10:37:39;16.30;;;5.30;;
55483;SDS011;41345;51.704;5.146;2022-12-07T10:42:40;8.82;;;5.03;;
55483;SDS011;41345;51.704;5.146;2022-12-07T10:53:09;12.13;;;4.57;;
55483;SDS011;41345;51.704;5.146;2022-12-07T11:03:23;20.48;;;5.32;;
55483;SDS011;41345;51.704;5.146;2022-12-07T11:09:00;8.77;;;3.70;;
55483;SDS011;41345;51.704;5.146;2022-12-07T11:24:15;14.20;;;3.50;;
55483;SDS011;41345;51.704;5.146;2022-12-07T11:29:23;7.95;;;3.05;;
55483;SDS011;41345;51.704;5.146;2022-12-07T11:34:49;8.65;;;3.35;;
55483;SDS011;41345;51.704;5.146;2022-12-07T11:39:55;9.02;;;2.70;;
55483;SDS011;41345;51.704;5.146;2022-12-07T11:45:10;8.48;;;2.30;;
55483;SDS011;41345;51.704;5.146;2022-12-07T12:00:25;4.90;;;1.67;;
55483;SDS011;41345;51.704;5.146;2022-12-07T12:05:26;8.90;;;2.35;;
55483;SDS011;41345;51.704;5.146;2022-12-07T12:20:52;7.30;;;1.73;;
55483;SDS011;41345;51.704;5.146;2022-12-07T12:31:13;7.72;;;1.65;;
55483;SDS011;41345;51.704;5.146;2022-12-07T12:36:17;5.40;;;1.33;;
55483;SDS011;41345;51.704;5.146;2022-12-07T12:56:41;7.65;;;2.42;;
55483;SDS011;41345;51.704;5.146;2022-12-07T13:01:43;8.98;;;2.20;;
55483;SDS011;41345;51.704;5.146;2022-12-07T13:06:43;10.45;;;2.28;;
55483;SDS011;41345;51.704;5.146;2022-12-07T13:11:44;6.70;;;2.20;;
55483;SDS011;41345;51.704;5.146;2022-12-07T13:16:44;9.77;;;2.83;;
55483;SDS011;41345;51.704;5.146;2022-12-07T13:21:45;12.38;;;2.50;;
55483;SDS011;41345;51.704;5.146;2022-12-07T13:26:45;5.82;;;1.40;;
55483;SDS011;41345;51.704;5.146;2022-12-07T13:31:49;9.68;;;2.50;;
55483;SDS011;41345;51.704;5.146;2022-12-07T13:36:50;4.10;;;1.50;;
55483;SDS011;41345;51.704;5.146;2022-12-07T13:41:54;2.75;;;1.35;;
55483;SDS011;41345;51.704;5.146;2022-12-07T13:52:32;2.20;;;1.70;;
55483;SDS011;41345;51.704;5.146;2022-12-07T13:57:26;3.65;;;2.10;;
55483;SDS011;41345;51.704;5.146;2022-12-07T14:02:31;5.25;;;2.10;;
55483;SDS011;41345;51.704;5.146;2022-12-07T14:07:31;2.85;;;1.90;;
55483;SDS011;41345;51.704;5.146;2022-12-07T14:12:35;2.35;;;1.73;;
55483;SDS011;41345;51.704;5.146;2022-12-07T14:17:35;4.03;;;1.85;;
55483;SDS011;41345;51.704;5.146;2022-12-07T14:22:37;4.13;;;2.10;;
55483;SDS011;41345;51.704;5.146;2022-12-07T14:27:37;5.90;;;2.40;;
55483;SDS011;41345;51.704;5.146;2022-12-07T14:32:37;5.43;;;2.20;;
55483;SDS011;41345;51.704;5.146;2022-12-07T14:37:38;4.40;;;2.00;;
55483;SDS011;41345;51.704;5.146;2022-12-07T14:42:38;4.90;;;2.25;;
55483;SDS011;41345;51.704;5.146;2022-12-07T14:47:39;4.18;;;1.77;;
55483;SDS011;41345;51.704;5.146;2022-12-07T14:52:39;4.63;;;2.35;;
55483;SDS011;41345;51.704;5.146;2022-12-07T14:57:40;6.07;;;2.10;;
55483;SDS011;41345;51.704;5.146;2022-12-07T15:02:41;4.32;;;2.17;;
55483;SDS011;41345;51.704;5.146;2022-12-07T15:07:41;5.78;;;2.22;;
55483;SDS011;41345;51.704;5.146;2022-12-07T15:12:41;5.95;;;2.08;;
55483;SDS011;41345;51.704;5.146;2022-12-07T15:17:42;3.00;;;2.10;;
55483;SDS011;41345;51.704;5.146;2022-12-07T15:22:43;3.50;;;2.08;;
55483;SDS011;41345;51.704;5.146;2022-12-07T15:27:44;3.50;;;1.88;;
55483;SDS011;41345;51.704;5.146;2022-12-07T15:32:44;2.72;;;1.70;;
55483;SDS011;41345;51.704;5.146;2022-12-07T15:37:48;5.70;;;2.20;;
55483;SDS011;41345;51.704;5.146;2022-12-07T15:42:49;4.75;;;2.38;;
55483;SDS011;41345;51.704;5.146;2022-12-07T15:47:49;6.55;;;2.28;;
55483;SDS011;41345;51.704;5.146;2022-12-07T15:52:49;13.38;;;4.50;;
55483;SDS011;41345;51.704;5.146;2022-12-07T15:57:49;9.70;;;3.38;;
55483;SDS011;41345;51.704;5.146;2022-12-07T16:02:50;9.55;;;5.22;;
55483;SDS011;41345;51.704;5.146;2022-12-07T16:07:50;11.75;;;5.45;;
55483;SDS011;41345;51.704;5.146;2022-12-07T16:12:50;10.40;;;4.90;;
55483;SDS011;41345;51.704;5.146;2022-12-07T16:17:51;9.73;;;4.65;;
55483;SDS011;41345;51.704;5.146;2022-12-07T16:22:52;10.68;;;4.85;;
55483;SDS011;41345;51.704;5.146;2022-12-07T16:27:53;9.68;;;4.18;;
55483;SDS011;41345;51.704;5.146;2022-12-07T16:32:53;9.20;;;3.50;;
55483;SDS011;41345;51.704;5.146;2022-12-07T16:37:53;6.40;;;3.35;;
55483;SDS011;41345;51.704;5.146;2022-12-07T16:42:53;8.50;;;3.60;;
55483;SDS011;41345;51.704;5.146;2022-12-07T16:47:54;12.25;;;5.22;;
55483;SDS011;41345;51.704;5.146;2022-12-07T16:52:54;9.93;;;5.15;;
55483;SDS011;41345;51.704;5.146;2022-12-07T16:57:54;8.57;;;5.13;;
55483;SDS011;41345;51.704;5.146;2022-12-07T17:02:55;12.00;;;4.80;;
55483;SDS011;41345;51.704;5.146;2022-12-07T17:07:55;7.38;;;4.35;;
55483;SDS011;41345;51.704;5.146;2022-12-07T17:12:56;8.60;;;4.30;;
55483;SDS011;41345;51.704;5.146;2022-12-07T17:17:58;7.93;;;4.40;;
55483;SDS011;41345;51.704;5.146;2022-12-07T17:22:58;13.10;;;5.80;;
55483;SDS011;41345;51.704;5.146;2022-12-07T17:27:58;9.90;;;5.80;;
55483;SDS011;41345;51.704;5.146;2022-12-07T17:32:58;16.08;;;8.40;;
55483;SDS011;41345;51.704;5.146;2022-12-07T17:37:59;13.32;;;7.15;;
55483;SDS011;41345;51.704;5.146;2022-12-07T17:42:59;14.43;;;7.57;;
55483;SDS011;41345;51.704;5.146;2022-12-07T17:47:59;13.82;;;6.63;;
55483;SDS011;41345;51.704;5.146;2022-12-07T17:52:59;13.85;;;7.00;;
55483;SDS011;41345;51.704;5.146;2022-12-07T17:58:12;15.15;;;7.20;;
55483;SDS011;41345;51.704;5.146;2022-12-07T18:03:12;14.77;;;7.93;;
55483;SDS011;41345;51.704;5.146;2022-12-07T18:08:12;14.02;;;8.48;;
55483;SDS011;41345;51.704;5.146;2022-12-07T18:13:13;15.57;;;8.68;;
55483;SDS011;41345;51.704;5.146;2022-12-07T18:18:31;14.50;;;8.75;;
55483;SDS011;41345;51.704;5.146;2022-12-07T18:23:32;19.67;;;10.30;;
55483;SDS011;41345;51.704;5.146;2022-12-07T18:28:32;15.13;;;9.75;;
55483;SDS011;41345;51.704;5.146;2022-12-07T18:33:33;17.73;;;8.48;;
55483;SDS011;41345;51.704;5.146;2022-12-07T18:38:33;19.50;;;8.60;;
55483;SDS011;41345;51.704;5.146;2022-12-07T18:43:34;23.60;;;10.57;;
55483;SDS011;41345;51.704;5.146;2022-12-07T18:48:34;16.67;;;8.30;;
55483;SDS011;41345;51.704;5.146;2022-12-07T18:53:35;16.48;;;7.07;;
55483;SDS011;41345;51.704;5.146;2022-12-07T18:58:35;12.45;;;7.22;;
55483;SDS011;41345;51.704;5.146;2022-12-07T19:03:36;11.88;;;7.22;;
55483;SDS011;41345;51.704;5.146;2022-12-07T19:08:37;13.48;;;8.18;;
55483;SDS011;41345;51.704;5.146;2022-12-07T19:13:38;16.23;;;7.57;;
55483;SDS011;41345;51.704;5.146;2022-12-07T19:18:38;16.65;;;7.97;;
55483;SDS011;41345;51.704;5.146;2022-12-07T19:23:38;10.77;;;6.40;;
55483;SDS011;41345;51.704;5.146;2022-12-07T19:28:39;10.77;;;6.20;;
55483;SDS011;41345;51.704;5.146;2022-12-07T19:33:39;9.90;;;5.80;;
55483;SDS011;41345;51.704;5.146;2022-12-07T19:38:40;11.30;;;6.13;;
55483;SDS011;41345;51.704;5.146;2022-12-07T19:43:40;12.10;;;6.40;;
55483;SDS011;41345;51.704;5.146;2022-12-07T19:48:40;10.75;;;6.38;;
55483;SDS011;41345;51.704;5.146;2022-12-07T19:53:40;12.30;;;5.88;;
55483;SDS011;41345;51.704;5.146;2022-12-07T19:58:41;9.07;;;5.57;;
55483;SDS011;41345;51.704;5.146;2022-12-07T20:03:41;14.02;;;5.95;;
55483;SDS011;41345;51.704;5.146;2022-12-07T20:08:42;12.07;;;6.32;;
55483;SDS011;41345;51.704;5.146;2022-12-07T20:13:43;12.63;;;5.78;;
55483;SDS011;41345;51.704;5.146;2022-12-07T20:18:44;10.00;;;6.27;;
55483;SDS011;41345;51.704;5.146;2022-12-07T20:23:44;14.07;;;5.97;;
55483;SDS011;41345;51.704;5.146;2022-12-07T20:28:45;11.82;;;6.90;;
55483;SDS011;41345;51.704;5.146;2022-12-07T20:33:45;9.98;;;6.85;;
55483;SDS011;41345;51.704;5.146;2022-12-07T20:38:46;10.40;;;6.05;;
55483;SDS011;41345;51.704;5.146;2022-12-07T20:43:46;14.70;;;7.90;;
55483;SDS011;41345;51.704;5.146;2022-12-07T20:48:46;14.85;;;7.95;;
55483;SDS011;41345;51.704;5.146;2022-12-07T20:53:46;13.38;;;6.50;;
55483;SDS011;41345;51.704;5.146;2022-12-07T20:58:47;13.50;;;6.72;;
55483;SDS011;41345;51.704;5.146;2022-12-07T21:03:47;14.45;;;7.57;;
55483;SDS011;41345;51.704;5.146;2022-12-07T21:08:48;11.23;;;8.00;;
55483;SDS011;41345;51.704;5.146;2022-12-07T21:13:48;10.40;;;7.05;;
55483;SDS011;41345;51.704;5.146;2022-12-07T21:18:49;14.48;;;7.22;;
55483;SDS011;41345;51.704;5.146;2022-12-07T21:23:51;11.48;;;7.82;;
55483;SDS011;41345;51.704;5.146;2022-12-07T21:28:51;15.43;;;8.23;;
55483;SDS011;41345;51.704;5.146;2022-12-07T21:33:52;15.57;;;7.47;;
55483;SDS011;41345;51.704;5.146;2022-12-07T21:38:53;13.60;;;7.15;;
55483;SDS011;41345;51.704;5.146;2022-12-07T21:43:53;13.90;;;7.72;;
55483;SDS011;41345;51.704;5.146;2022-12-07T21:48:55;14.10;;;7.70;;
55483;SDS011;41345;51.704;5.146;2022-12-07T21:53:56;13.25;;;7.38;;
55483;SDS011;41345;51.704;5.146;2022-12-07T21:59:00;11.63;;;6.65;;
55483;SDS011;41345;51.704;5.146;2022-12-07T22:04:01;17.58;;;7.53;;
55483;SDS011;41345;51.704;5.146;2022-12-07T22:09:04;12.65;;;6.78;;
55483;SDS011;41345;51.704;5.146;2022-12-07T22:14:05;14.10;;;7.28;;
55483;SDS011;41345;51.704;5.146;2022-12-07T22:19:24;14.50;;;7.32;;
55483;SDS011;41345;51.704;5.146;2022-12-07T22:24:25;11.98;;;6.18;;
55483;SDS011;41345;51.704;5.146;2022-12-07T22:29:25;9.65;;;6.15;;
55483;SDS011;41345;51.704;5.146;2022-12-07T22:34:25;11.77;;;6.80;;
55483;SDS011;41345;51.704;5.146;2022-12-07T22:39:26;14.20;;;6.72;;
55483;SDS011;41345;51.704;5.146;2022-12-07T22:44:26;11.20;;;7.40;;
55483;SDS011;41345;51.704;5.146;2022-12-07T22:49:26;13.70;;;8.35;;
55483;SDS011;41345;51.704;5.146;2022-12-07T22:54:27;16.52;;;9.40;;
55483;SDS011;41345;51.704;5.146;2022-12-07T22:59:27;15.88;;;9.95;;
55483;SDS011;41345;51.704;5.146;2022-12-07T23:04:27;15.60;;;10.27;;
55483;SDS011;41345;51.704;5.146;2022-12-07T23:09:27;20.65;;;12.75;;
55483;SDS011;41345;51.704;5.146;2022-12-07T23:19:28;23.40;;;14.27;;
55483;SDS011;41345;51.704;5.146;2022-12-07T23:24:28;26.42;;;15.10;;
55483;SDS011;41345;51.704;5.146;2022-12-07T23:29:29;21.33;;;15.02;;
55483;SDS011;41345;51.704;5.146;2022-12-07T23:34:29;24.40;;;15.23;;
55483;SDS011;41345;51.704;5.146;2022-12-07T23:39:29;26.13;;;16.10;;
55483;SDS011;41345;51.704;5.146;2022-12-07T23:44:30;27.48;;;15.85;;
55483;SDS011;41345;51.704;5.146;2022-12-07T23:49:30;24.05;;;15.07;;
55483;SDS011;41345;51.704;5.146;2022-12-07T23:54:30;30.00;;;15.68;;
55483;SDS011;41345;51.704;5.146;2022-12-07T23:59:31;27.98;;;15.35;;
